sensor_id;sensor_type;location;lat;lon;timestamp;P1;durP1;ratioP1;P2;durP2;ratioP2
61915;SDS011;47868;51.326;6.550;2023-04-06T00:01:00;15.20;;;10.85;;
61915;SDS011;47868;51.326;6.550;2023-04-06T00:03:27;14.88;;;9.85;;
61915;SDS011;47868;51.326;6.550;2023-04-06T00:05:53;18.48;;;10.65;;
61915;SDS011;47868;51.326;6.550;2023-04-06T00:08:19;14.35;;;11.15;;
61915;SDS011;47868;51.326;6.550;2023-04-06T00:10:46;12.88;;;10.30;;
61915;SDS011;47868;51.326;6.550;2023-04-06T00:13:12;15.35;;;10.90;;
61915;SDS011;47868;51.326;6.550;2023-04-06T00:15:38;14.38;;;10.93;;
61915;SDS011;47868;51.326;6.550;2023-04-06T00:18:05;16.45;;;10.55;;
61915;SDS011;47868;51.326;6.550;2023-04-06T00:20:31;12.93;;;10.55;;
61915;SDS011;47868;51.326;6.550;2023-04-06T00:22:57;14.70;;;10.13;;
61915;SDS011;47868;51.326;6.550;2023-04-06T00:25:23;15.18;;;10.40;;
61915;SDS011;47868;51.326;6.550;2023-04-06T00:27:49;18.75;;;10.70;;
61915;SDS011;47868;51.326;6.550;2023-04-06T00:30:15;12.30;;;9.80;;
61915;SDS011;47868;51.326;6.550;2023-04-06T00:32:41;12.93;;;10.60;;
61915;SDS011;47868;51.326;6.550;2023-04-06T00:35:07;13.70;;;9.65;;
61915;SDS011;47868;51.326;6.550;2023-04-06T00:37:34;15.80;;;10.50;;
61915;SDS011;47868;51.326;6.550;2023-04-06T00:40:00;12.50;;;9.63;;
61915;SDS011;47868;51.326;6.550;2023-04-06T00:42:27;20.13;;;10.10;;
61915;SDS011;47868;51.326;6.550;2023-04-06T00:47:19;13.50;;;10.40;;
61915;SDS011;47868;51.326;6.550;2023-04-06T00:49:45;15.80;;;10.25;;
61915;SDS011;47868;51.326;6.550;2023-04-06T00:52:12;13.70;;;9.95;;
61915;SDS011;47868;51.326;6.550;2023-04-06T00:54:38;12.45;;;10.90;;
61915;SDS011;47868;51.326;6.550;2023-04-06T00:57:04;13.55;;;10.65;;
61915;SDS011;47868;51.326;6.550;2023-04-06T00:59:30;15.45;;;11.45;;
61915;SDS011;47868;51.326;6.550;2023-04-06T01:01:57;18.88;;;11.07;;
61915;SDS011;47868;51.326;6.550;2023-04-06T01:04:23;12.00;;;10.45;;
61915;SDS011;47868;51.326;6.550;2023-04-06T01:06:50;14.70;;;10.82;;
61915;SDS011;47868;51.326;6.550;2023-04-06T01:09:16;14.35;;;11.20;;
61915;SDS011;47868;51.326;6.550;2023-04-06T01:11:42;13.63;;;10.02;;
61915;SDS011;47868;51.326;6.550;2023-04-06T01:14:09;16.30;;;11.90;;
61915;SDS011;47868;51.326;6.550;2023-04-06T01:16:35;17.87;;;11.20;;
61915;SDS011;47868;51.326;6.550;2023-04-06T01:19:01;15.90;;;10.93;;
61915;SDS011;47868;51.326;6.550;2023-04-06T01:21:27;14.97;;;10.90;;
61915;SDS011;47868;51.326;6.550;2023-04-06T01:23:53;15.90;;;11.87;;
61915;SDS011;47868;51.326;6.550;2023-04-06T01:26:20;15.67;;;11.67;;
61915;SDS011;47868;51.326;6.550;2023-04-06T01:28:46;13.93;;;10.95;;
61915;SDS011;47868;51.326;6.550;2023-04-06T01:31:12;19.70;;;12.00;;
61915;SDS011;47868;51.326;6.550;2023-04-06T01:33:38;15.77;;;11.70;;
61915;SDS011;47868;51.326;6.550;2023-04-06T01:36:04;18.05;;;11.63;;
61915;SDS011;47868;51.326;6.550;2023-04-06T01:38:30;16.95;;;11.63;;
61915;SDS011;47868;51.326;6.550;2023-04-06T01:40:56;15.95;;;11.60;;
61915;SDS011;47868;51.326;6.550;2023-04-06T01:43:22;21.77;;;12.05;;
61915;SDS011;47868;51.326;6.550;2023-04-06T01:45:48;17.55;;;11.18;;
61915;SDS011;47868;51.326;6.550;2023-04-06T01:48:18;22.10;;;11.93;;
61915;SDS011;47868;51.326;6.550;2023-04-06T01:50:44;17.65;;;11.48;;
61915;SDS011;47868;51.326;6.550;2023-04-06T01:53:10;14.82;;;10.95;;
61915;SDS011;47868;51.326;6.550;2023-04-06T01:55:36;14.27;;;11.00;;
61915;SDS011;47868;51.326;6.550;2023-04-06T01:58:02;17.35;;;10.27;;
61915;SDS011;47868;51.326;6.550;2023-04-06T02:00:29;14.70;;;11.63;;
61915;SDS011;47868;51.326;6.550;2023-04-06T02:02:55;17.25;;;12.70;;
61915;SDS011;47868;51.326;6.550;2023-04-06T02:05:21;14.18;;;11.55;;
61915;SDS011;47868;51.326;6.550;2023-04-06T02:07:47;16.58;;;11.50;;
61915;SDS011;47868;51.326;6.550;2023-04-06T02:10:14;18.30;;;11.07;;
61915;SDS011;47868;51.326;6.550;2023-04-06T02:12:40;18.65;;;12.25;;
61915;SDS011;47868;51.326;6.550;2023-04-06T02:15:06;15.75;;;11.85;;
61915;SDS011;47868;51.326;6.550;2023-04-06T02:17:32;18.85;;;12.45;;
61915;SDS011;47868;51.326;6.550;2023-04-06T02:19:58;15.95;;;11.27;;
61915;SDS011;47868;51.326;6.550;2023-04-06T02:22:24;17.65;;;12.27;;
61915;SDS011;47868;51.326;6.550;2023-04-06T02:24:50;15.77;;;12.07;;
61915;SDS011;47868;51.326;6.550;2023-04-06T02:27:16;17.33;;;12.10;;
61915;SDS011;47868;51.326;6.550;2023-04-06T02:29:42;17.60;;;12.68;;
61915;SDS011;47868;51.326;6.550;2023-04-06T02:32:09;18.40;;;12.20;;
61915;SDS011;47868;51.326;6.550;2023-04-06T02:34:35;13.57;;;11.32;;
61915;SDS011;47868;51.326;6.550;2023-04-06T02:37:01;18.85;;;12.13;;
61915;SDS011;47868;51.326;6.550;2023-04-06T02:39:27;19.83;;;12.38;;
61915;SDS011;47868;51.326;6.550;2023-04-06T02:41:53;16.35;;;11.07;;
61915;SDS011;47868;51.326;6.550;2023-04-06T02:44:20;16.77;;;11.35;;
61915;SDS011;47868;51.326;6.550;2023-04-06T02:46:46;14.25;;;11.90;;
61915;SDS011;47868;51.326;6.550;2023-04-06T02:49:12;19.17;;;12.18;;
61915;SDS011;47868;51.326;6.550;2023-04-06T02:51:38;16.88;;;12.50;;
61915;SDS011;47868;51.326;6.550;2023-04-06T02:54:04;16.33;;;12.52;;
61915;SDS011;47868;51.326;6.550;2023-04-06T02:56:30;13.57;;;11.60;;
61915;SDS011;47868;51.326;6.550;2023-04-06T02:58:56;19.73;;;12.77;;
61915;SDS011;47868;51.326;6.550;2023-04-06T03:01:22;16.13;;;11.93;;
61915;SDS011;47868;51.326;6.550;2023-04-06T03:03:48;15.73;;;12.98;;
61915;SDS011;47868;51.326;6.550;2023-04-06T03:06:14;19.40;;;12.48;;
61915;SDS011;47868;51.326;6.550;2023-04-06T03:08:40;18.35;;;14.10;;
61915;SDS011;47868;51.326;6.550;2023-04-06T03:11:06;19.17;;;13.20;;
61915;SDS011;47868;51.326;6.550;2023-04-06T03:13:32;18.40;;;13.45;;
61915;SDS011;47868;51.326;6.550;2023-04-06T03:15:59;16.98;;;13.63;;
61915;SDS011;47868;51.326;6.550;2023-04-06T03:18:25;20.63;;;13.80;;
61915;SDS011;47868;51.326;6.550;2023-04-06T03:20:51;23.15;;;14.85;;
61915;SDS011;47868;51.326;6.550;2023-04-06T03:23:20;23.10;;;14.75;;
61915;SDS011;47868;51.326;6.550;2023-04-06T03:25:46;20.02;;;15.07;;
61915;SDS011;47868;51.326;6.550;2023-04-06T03:28:12;22.40;;;15.47;;
61915;SDS011;47868;51.326;6.550;2023-04-06T03:30:38;19.80;;;15.50;;
61915;SDS011;47868;51.326;6.550;2023-04-06T03:33:04;21.30;;;15.87;;
61915;SDS011;47868;51.326;6.550;2023-04-06T03:35:30;26.90;;;15.50;;
61915;SDS011;47868;51.326;6.550;2023-04-06T03:37:57;20.88;;;15.48;;
61915;SDS011;47868;51.326;6.550;2023-04-06T03:40:23;19.95;;;15.45;;
61915;SDS011;47868;51.326;6.550;2023-04-06T03:42:49;20.30;;;14.52;;
61915;SDS011;47868;51.326;6.550;2023-04-06T03:45:15;21.20;;;15.68;;
61915;SDS011;47868;51.326;6.550;2023-04-06T03:47:41;21.25;;;16.45;;
61915;SDS011;47868;51.326;6.550;2023-04-06T03:50:08;26.42;;;15.23;;
61915;SDS011;47868;51.326;6.550;2023-04-06T03:52:34;22.20;;;15.13;;
61915;SDS011;47868;51.326;6.550;2023-04-06T03:55:01;17.08;;;14.30;;
61915;SDS011;47868;51.326;6.550;2023-04-06T03:57:27;22.63;;;15.00;;
61915;SDS011;47868;51.326;6.550;2023-04-06T03:59:53;18.20;;;14.82;;
61915;SDS011;47868;51.326;6.550;2023-04-06T04:02:19;20.30;;;14.15;;
61915;SDS011;47868;51.326;6.550;2023-04-06T04:04:45;19.83;;;15.60;;
61915;SDS011;47868;51.326;6.550;2023-04-06T04:07:11;21.33;;;14.75;;
61915;SDS011;47868;51.326;6.550;2023-04-06T04:09:37;26.35;;;13.38;;
61915;SDS011;47868;51.326;6.550;2023-04-06T04:12:03;17.13;;;13.87;;
61915;SDS011;47868;51.326;6.550;2023-04-06T04:14:30;18.15;;;13.48;;
61915;SDS011;47868;51.326;6.550;2023-04-06T04:16:56;19.80;;;12.60;;
61915;SDS011;47868;51.326;6.550;2023-04-06T04:19:22;18.00;;;14.32;;
61915;SDS011;47868;51.326;6.550;2023-04-06T04:21:48;18.40;;;13.40;;
61915;SDS011;47868;51.326;6.550;2023-04-06T04:24:14;21.90;;;14.00;;
61915;SDS011;47868;51.326;6.550;2023-04-06T04:26:40;21.73;;;14.43;;
61915;SDS011;47868;51.326;6.550;2023-04-06T04:29:06;18.23;;;12.93;;
61915;SDS011;47868;51.326;6.550;2023-04-06T04:31:32;20.03;;;14.10;;
61915;SDS011;47868;51.326;6.550;2023-04-06T04:33:59;18.63;;;14.07;;
61915;SDS011;47868;51.326;6.550;2023-04-06T04:36:25;21.77;;;13.50;;
61915;SDS011;47868;51.326;6.550;2023-04-06T04:38:51;20.73;;;14.23;;
61915;SDS011;47868;51.326;6.550;2023-04-06T04:41:18;18.37;;;14.77;;
61915;SDS011;47868;51.326;6.550;2023-04-06T04:43:44;22.83;;;14.27;;
61915;SDS011;47868;51.326;6.550;2023-04-06T04:46:10;22.47;;;15.13;;
61915;SDS011;47868;51.326;6.550;2023-04-06T04:48:36;21.30;;;16.20;;
61915;SDS011;47868;51.326;6.550;2023-04-06T04:51:03;22.33;;;15.40;;
61915;SDS011;47868;51.326;6.550;2023-04-06T04:53:30;23.83;;;16.83;;
61915;SDS011;47868;51.326;6.550;2023-04-06T04:55:56;25.67;;;16.17;;
61915;SDS011;47868;51.326;6.550;2023-04-06T04:58:22;20.55;;;15.48;;
61915;SDS011;47868;51.326;6.550;2023-04-06T05:00:48;20.60;;;16.23;;
61915;SDS011;47868;51.326;6.550;2023-04-06T05:03:24;22.00;;;16.73;;
61915;SDS011;47868;51.326;6.550;2023-04-06T05:05:50;22.23;;;15.83;;
61915;SDS011;47868;51.326;6.550;2023-04-06T05:08:16;19.88;;;14.95;;
61915;SDS011;47868;51.326;6.550;2023-04-06T05:10:42;21.23;;;15.65;;
61915;SDS011;47868;51.326;6.550;2023-04-06T05:13:10;20.57;;;14.43;;
61915;SDS011;47868;51.326;6.550;2023-04-06T05:15:36;22.85;;;14.45;;
61915;SDS011;47868;51.326;6.550;2023-04-06T05:18:06;21.37;;;14.73;;
61915;SDS011;47868;51.326;6.550;2023-04-06T05:20:32;19.27;;;13.97;;
61915;SDS011;47868;51.326;6.550;2023-04-06T05:22:59;22.77;;;13.93;;
61915;SDS011;47868;51.326;6.550;2023-04-06T05:25:25;17.90;;;13.97;;
61915;SDS011;47868;51.326;6.550;2023-04-06T05:27:51;26.63;;;14.93;;
61915;SDS011;47868;51.326;6.550;2023-04-06T05:30:17;18.05;;;14.18;;
61915;SDS011;47868;51.326;6.550;2023-04-06T05:32:44;23.80;;;14.27;;
61915;SDS011;47868;51.326;6.550;2023-04-06T05:35:10;20.57;;;14.17;;
61915;SDS011;47868;51.326;6.550;2023-04-06T05:37:37;18.73;;;13.57;;
61915;SDS011;47868;51.326;6.550;2023-04-06T05:40:03;20.03;;;12.67;;
61915;SDS011;47868;51.326;6.550;2023-04-06T05:42:38;25.35;;;13.77;;
61915;SDS011;47868;51.326;6.550;2023-04-06T05:45:06;21.27;;;13.35;;
61915;SDS011;47868;51.326;6.550;2023-04-06T05:47:32;24.70;;;13.87;;
61915;SDS011;47868;51.326;6.550;2023-04-06T05:49:58;21.92;;;13.60;;
61915;SDS011;47868;51.326;6.550;2023-04-06T05:52:24;23.95;;;15.18;;
61915;SDS011;47868;51.326;6.550;2023-04-06T05:54:50;18.73;;;14.90;;
61915;SDS011;47868;51.326;6.550;2023-04-06T05:57:16;24.17;;;18.25;;
61915;SDS011;47868;51.326;6.550;2023-04-06T05:59:43;28.10;;;16.65;;
61915;SDS011;47868;51.326;6.550;2023-04-06T06:02:09;20.48;;;14.55;;
61915;SDS011;47868;51.326;6.550;2023-04-06T06:04:35;24.80;;;13.45;;
61915;SDS011;47868;51.326;6.550;2023-04-06T06:07:01;23.20;;;13.75;;
61915;SDS011;47868;51.326;6.550;2023-04-06T06:09:27;21.30;;;13.15;;
61915;SDS011;47868;51.326;6.550;2023-04-06T06:11:53;21.10;;;12.75;;
61915;SDS011;47868;51.326;6.550;2023-04-06T06:14:19;15.68;;;11.43;;
61915;SDS011;47868;51.326;6.550;2023-04-06T06:16:46;17.88;;;13.02;;
61915;SDS011;47868;51.326;6.550;2023-04-06T06:19:13;19.30;;;13.23;;
61915;SDS011;47868;51.326;6.550;2023-04-06T06:21:39;18.02;;;13.10;;
61915;SDS011;47868;51.326;6.550;2023-04-06T06:24:05;24.77;;;12.98;;
61915;SDS011;47868;51.326;6.550;2023-04-06T06:26:34;22.38;;;13.95;;
61915;SDS011;47868;51.326;6.550;2023-04-06T06:29:02;16.95;;;12.93;;
61915;SDS011;47868;51.326;6.550;2023-04-06T06:31:30;18.83;;;13.35;;
61915;SDS011;47868;51.326;6.550;2023-04-06T06:33:56;20.25;;;12.90;;
61915;SDS011;47868;51.326;6.550;2023-04-06T06:36:22;22.98;;;13.73;;
61915;SDS011;47868;51.326;6.550;2023-04-06T06:38:48;20.08;;;13.52;;
61915;SDS011;47868;51.326;6.550;2023-04-06T06:41:16;20.30;;;13.50;;
61915;SDS011;47868;51.326;6.550;2023-04-06T06:43:42;18.55;;;12.82;;
61915;SDS011;47868;51.326;6.550;2023-04-06T06:46:09;17.27;;;12.10;;
61915;SDS011;47868;51.326;6.550;2023-04-06T06:48:35;22.52;;;12.55;;
61915;SDS011;47868;51.326;6.550;2023-04-06T06:51:01;15.55;;;12.25;;
61915;SDS011;47868;51.326;6.550;2023-04-06T06:53:27;16.55;;;12.57;;
61915;SDS011;47868;51.326;6.550;2023-04-06T06:55:53;16.98;;;12.23;;
61915;SDS011;47868;51.326;6.550;2023-04-06T06:58:20;18.95;;;13.63;;
61915;SDS011;47868;51.326;6.550;2023-04-06T07:00:46;18.90;;;11.82;;
61915;SDS011;47868;51.326;6.550;2023-04-06T07:03:12;17.25;;;11.35;;
61915;SDS011;47868;51.326;6.550;2023-04-06T07:05:38;16.98;;;12.55;;
61915;SDS011;47868;51.326;6.550;2023-04-06T07:08:04;16.08;;;12.23;;
61915;SDS011;47868;51.326;6.550;2023-04-06T07:10:30;13.23;;;11.60;;
61915;SDS011;47868;51.326;6.550;2023-04-06T07:12:56;15.35;;;11.68;;
61915;SDS011;47868;51.326;6.550;2023-04-06T07:15:22;15.00;;;11.60;;
61915;SDS011;47868;51.326;6.550;2023-04-06T07:17:49;15.18;;;11.90;;
61915;SDS011;47868;51.326;6.550;2023-04-06T07:20:15;20.08;;;12.73;;
61915;SDS011;47868;51.326;6.550;2023-04-06T07:22:42;19.75;;;12.68;;
61915;SDS011;47868;51.326;6.550;2023-04-06T07:25:08;15.07;;;12.57;;
61915;SDS011;47868;51.326;6.550;2023-04-06T07:27:34;15.57;;;12.07;;
61915;SDS011;47868;51.326;6.550;2023-04-06T07:30:00;19.65;;;13.77;;
61915;SDS011;47868;51.326;6.550;2023-04-06T07:32:26;14.75;;;12.55;;
61915;SDS011;47868;51.326;6.550;2023-04-06T07:34:53;23.55;;;13.73;;
61915;SDS011;47868;51.326;6.550;2023-04-06T07:37:19;18.13;;;13.57;;
61915;SDS011;47868;51.326;6.550;2023-04-06T07:39:45;18.17;;;13.55;;
61915;SDS011;47868;51.326;6.550;2023-04-06T07:42:11;27.08;;;14.07;;
61915;SDS011;47868;51.326;6.550;2023-04-06T07:44:37;16.45;;;13.07;;
61915;SDS011;47868;51.326;6.550;2023-04-06T07:47:03;19.92;;;13.57;;
61915;SDS011;47868;51.326;6.550;2023-04-06T07:49:29;24.70;;;13.57;;
61915;SDS011;47868;51.326;6.550;2023-04-06T07:51:57;17.95;;;13.00;;
61915;SDS011;47868;51.326;6.550;2023-04-06T07:54:23;25.35;;;13.48;;
61915;SDS011;47868;51.326;6.550;2023-04-06T07:56:49;22.35;;;13.65;;
61915;SDS011;47868;51.326;6.550;2023-04-06T07:59:15;19.33;;;13.80;;
61915;SDS011;47868;51.326;6.550;2023-04-06T08:01:41;20.92;;;13.25;;
61915;SDS011;47868;51.326;6.550;2023-04-06T08:04:07;16.90;;;12.50;;
61915;SDS011;47868;51.326;6.550;2023-04-06T08:06:33;23.80;;;12.93;;
61915;SDS011;47868;51.326;6.550;2023-04-06T08:09:01;17.85;;;12.35;;
61915;SDS011;47868;51.326;6.550;2023-04-06T08:11:27;20.55;;;12.68;;
61915;SDS011;47868;51.326;6.550;2023-04-06T08:13:54;18.00;;;12.45;;
61915;SDS011;47868;51.326;6.550;2023-04-06T08:16:23;17.70;;;12.60;;
61915;SDS011;47868;51.326;6.550;2023-04-06T08:18:49;17.13;;;12.93;;
61915;SDS011;47868;51.326;6.550;2023-04-06T08:21:15;20.15;;;12.68;;
61915;SDS011;47868;51.326;6.550;2023-04-06T08:23:41;19.58;;;12.55;;
61915;SDS011;47868;51.326;6.550;2023-04-06T08:26:08;16.42;;;12.38;;
61915;SDS011;47868;51.326;6.550;2023-04-06T08:28:34;20.98;;;12.13;;
61915;SDS011;47868;51.326;6.550;2023-04-06T08:31:04;17.65;;;12.27;;
61915;SDS011;47868;51.326;6.550;2023-04-06T08:33:30;15.95;;;12.73;;
61915;SDS011;47868;51.326;6.550;2023-04-06T08:35:56;14.43;;;12.25;;
61915;SDS011;47868;51.326;6.550;2023-04-06T08:38:22;19.15;;;12.80;;
61915;SDS011;47868;51.326;6.550;2023-04-06T08:40:48;16.92;;;12.07;;
61915;SDS011;47868;51.326;6.550;2023-04-06T08:43:16;14.88;;;11.80;;
61915;SDS011;47868;51.326;6.550;2023-04-06T08:45:42;19.77;;;13.27;;
61915;SDS011;47868;51.326;6.550;2023-04-06T08:48:09;20.90;;;12.77;;
61915;SDS011;47868;51.326;6.550;2023-04-06T08:50:36;18.77;;;12.60;;
61915;SDS011;47868;51.326;6.550;2023-04-06T08:53:03;19.05;;;12.27;;
61915;SDS011;47868;51.326;6.550;2023-04-06T08:55:30;19.05;;;12.13;;
61915;SDS011;47868;51.326;6.550;2023-04-06T08:57:56;16.25;;;12.50;;
61915;SDS011;47868;51.326;6.550;2023-04-06T09:00:24;15.60;;;11.70;;
61915;SDS011;47868;51.326;6.550;2023-04-06T09:02:51;17.42;;;12.63;;
61915;SDS011;47868;51.326;6.550;2023-04-06T09:05:19;16.33;;;12.52;;
61915;SDS011;47868;51.326;6.550;2023-04-06T09:07:45;18.15;;;12.98;;
61915;SDS011;47868;51.326;6.550;2023-04-06T09:10:11;16.85;;;12.68;;
61915;SDS011;47868;51.326;6.550;2023-04-06T09:12:37;17.45;;;12.48;;
61915;SDS011;47868;51.326;6.550;2023-04-06T09:15:03;18.52;;;13.00;;
61915;SDS011;47868;51.326;6.550;2023-04-06T09:17:30;16.17;;;12.80;;
61915;SDS011;47868;51.326;6.550;2023-04-06T09:19:59;20.52;;;15.52;;
61915;SDS011;47868;51.326;6.550;2023-04-06T09:22:25;20.58;;;13.48;;
61915;SDS011;47868;51.326;6.550;2023-04-06T09:24:53;14.90;;;12.15;;
61915;SDS011;47868;51.326;6.550;2023-04-06T09:27:32;16.80;;;12.52;;
61915;SDS011;47868;51.326;6.550;2023-04-06T09:32:31;20.40;;;13.00;;
61915;SDS011;47868;51.326;6.550;2023-04-06T09:35:07;21.60;;;13.32;;
61915;SDS011;47868;51.326;6.550;2023-04-06T09:37:33;17.17;;;12.57;;
61915;SDS011;47868;51.326;6.550;2023-04-06T09:40:03;17.30;;;12.70;;
61915;SDS011;47868;51.326;6.550;2023-04-06T09:42:30;20.45;;;13.25;;
61915;SDS011;47868;51.326;6.550;2023-04-06T09:44:56;18.10;;;12.98;;
61915;SDS011;47868;51.326;6.550;2023-04-06T09:47:22;16.90;;;13.73;;
61915;SDS011;47868;51.326;6.550;2023-04-06T09:49:49;19.40;;;13.15;;
61915;SDS011;47868;51.326;6.550;2023-04-06T09:52:16;18.10;;;13.05;;
61915;SDS011;47868;51.326;6.550;2023-04-06T09:54:42;18.05;;;13.55;;
61915;SDS011;47868;51.326;6.550;2023-04-06T09:59:52;17.65;;;13.48;;
61915;SDS011;47868;51.326;6.550;2023-04-06T10:05:12;20.70;;;13.88;;
61915;SDS011;47868;51.326;6.550;2023-04-06T10:07:39;20.48;;;13.93;;
61915;SDS011;47868;51.326;6.550;2023-04-06T10:10:05;20.80;;;13.00;;
61915;SDS011;47868;51.326;6.550;2023-04-06T10:12:31;19.60;;;13.80;;
61915;SDS011;47868;51.326;6.550;2023-04-06T10:14:57;22.25;;;13.48;;
61915;SDS011;47868;51.326;6.550;2023-04-06T10:17:23;21.73;;;13.90;;
61915;SDS011;47868;51.326;6.550;2023-04-06T10:19:52;18.35;;;13.13;;
61915;SDS011;47868;51.326;6.550;2023-04-06T10:23:07;18.08;;;13.45;;
61915;SDS011;47868;51.326;6.550;2023-04-06T10:25:09;23.20;;;14.52;;
61915;SDS011;47868;51.326;6.550;2023-04-06T10:27:35;18.20;;;13.38;;
61915;SDS011;47868;51.326;6.550;2023-04-06T10:30:05;21.00;;;14.27;;
61915;SDS011;47868;51.326;6.550;2023-04-06T10:32:38;22.80;;;14.65;;
61915;SDS011;47868;51.326;6.550;2023-04-06T10:35:10;20.15;;;14.57;;
61915;SDS011;47868;51.326;6.550;2023-04-06T10:40:22;17.25;;;13.85;;
61915;SDS011;47868;51.326;6.550;2023-04-06T10:42:49;21.85;;;15.10;;
61915;SDS011;47868;51.326;6.550;2023-04-06T10:45:19;18.08;;;14.25;;
61915;SDS011;47868;51.326;6.550;2023-04-06T10:47:45;22.55;;;14.05;;
61915;SDS011;47868;51.326;6.550;2023-04-06T10:50:13;25.27;;;15.02;;
61915;SDS011;47868;51.326;6.550;2023-04-06T10:52:41;19.38;;;14.38;;
61915;SDS011;47868;51.326;6.550;2023-04-06T10:55:08;25.48;;;15.20;;
61915;SDS011;47868;51.326;6.550;2023-04-06T10:57:37;22.52;;;16.13;;
61915;SDS011;47868;51.326;6.550;2023-04-06T11:00:07;23.65;;;14.27;;
61915;SDS011;47868;51.326;6.550;2023-04-06T11:02:34;20.50;;;14.45;;
61915;SDS011;47868;51.326;6.550;2023-04-06T11:05:02;26.20;;;14.40;;
61915;SDS011;47868;51.326;6.550;2023-04-06T11:07:29;23.52;;;14.52;;
61915;SDS011;47868;51.326;6.550;2023-04-06T11:09:55;22.05;;;14.63;;
61915;SDS011;47868;51.326;6.550;2023-04-06T11:14:57;24.63;;;14.45;;
61915;SDS011;47868;51.326;6.550;2023-04-06T11:17:29;26.45;;;15.68;;
61915;SDS011;47868;51.326;6.550;2023-04-06T11:19:55;22.85;;;14.52;;
61915;SDS011;47868;51.326;6.550;2023-04-06T11:22:22;24.95;;;14.27;;
61915;SDS011;47868;51.326;6.550;2023-04-06T11:24:48;20.25;;;14.38;;
61915;SDS011;47868;51.326;6.550;2023-04-06T11:27:14;21.75;;;13.43;;
61915;SDS011;47868;51.326;6.550;2023-04-06T11:29:41;17.95;;;13.77;;
61915;SDS011;47868;51.326;6.550;2023-04-06T11:32:08;18.40;;;13.25;;
61915;SDS011;47868;51.326;6.550;2023-04-06T11:34:37;21.35;;;14.35;;
61915;SDS011;47868;51.326;6.550;2023-04-06T11:37:07;18.55;;;14.32;;
61915;SDS011;47868;51.326;6.550;2023-04-06T11:42:08;20.80;;;13.88;;
61915;SDS011;47868;51.326;6.550;2023-04-06T11:44:36;17.48;;;13.95;;
61915;SDS011;47868;51.326;6.550;2023-04-06T11:47:04;19.63;;;14.40;;
61915;SDS011;47868;51.326;6.550;2023-04-06T11:49:31;20.00;;;14.68;;
61915;SDS011;47868;51.326;6.550;2023-04-06T11:51:57;18.13;;;13.52;;
61915;SDS011;47868;51.326;6.550;2023-04-06T11:54:30;21.38;;;14.43;;
61915;SDS011;47868;51.326;6.550;2023-04-06T11:56:56;17.77;;;13.70;;
61915;SDS011;47868;51.326;6.550;2023-04-06T11:59:23;16.45;;;13.63;;
61915;SDS011;47868;51.326;6.550;2023-04-06T12:01:49;17.38;;;11.80;;
61915;SDS011;47868;51.326;6.550;2023-04-06T12:04:15;14.05;;;10.73;;
61915;SDS011;47868;51.326;6.550;2023-04-06T12:06:42;13.15;;;10.60;;
61915;SDS011;47868;51.326;6.550;2023-04-06T12:09:08;12.82;;;10.00;;
61915;SDS011;47868;51.326;6.550;2023-04-06T12:11:34;11.95;;;9.10;;
61915;SDS011;47868;51.326;6.550;2023-04-06T12:14:00;11.38;;;8.93;;
61915;SDS011;47868;51.326;6.550;2023-04-06T12:16:29;12.93;;;9.52;;
61915;SDS011;47868;51.326;6.550;2023-04-06T12:18:55;11.32;;;9.45;;
61915;SDS011;47868;51.326;6.550;2023-04-06T12:21:21;18.15;;;10.15;;
61915;SDS011;47868;51.326;6.550;2023-04-06T12:23:48;18.35;;;10.35;;
61915;SDS011;47868;51.326;6.550;2023-04-06T12:26:14;14.75;;;10.65;;
61915;SDS011;47868;51.326;6.550;2023-04-06T12:28:40;15.38;;;10.35;;
61915;SDS011;47868;51.326;6.550;2023-04-06T12:31:06;11.23;;;8.60;;
61915;SDS011;47868;51.326;6.550;2023-04-06T12:33:32;11.30;;;8.30;;
61915;SDS011;47868;51.326;6.550;2023-04-06T12:35:58;10.20;;;7.13;;
61915;SDS011;47868;51.326;6.550;2023-04-06T12:38:25;9.32;;;7.00;;
61915;SDS011;47868;51.326;6.550;2023-04-06T12:40:51;13.05;;;7.07;;
61915;SDS011;47868;51.326;6.550;2023-04-06T12:43:17;9.82;;;7.75;;
61915;SDS011;47868;51.326;6.550;2023-04-06T12:45:43;11.00;;;7.80;;
61915;SDS011;47868;51.326;6.550;2023-04-06T12:48:09;10.23;;;8.20;;
61915;SDS011;47868;51.326;6.550;2023-04-06T12:50:35;11.48;;;8.35;;
61915;SDS011;47868;51.326;6.550;2023-04-06T12:53:01;9.45;;;8.23;;
61915;SDS011;47868;51.326;6.550;2023-04-06T12:55:29;7.50;;;6.78;;
61915;SDS011;47868;51.326;6.550;2023-04-06T12:57:56;8.50;;;6.78;;
61915;SDS011;47868;51.326;6.550;2023-04-06T13:00:22;14.30;;;6.80;;
61915;SDS011;47868;51.326;6.550;2023-04-06T13:02:48;11.48;;;6.90;;
61915;SDS011;47868;51.326;6.550;2023-04-06T13:05:14;9.48;;;7.70;;
61915;SDS011;47868;51.326;6.550;2023-04-06T13:07:43;8.32;;;7.43;;
61915;SDS011;47868;51.326;6.550;2023-04-06T13:10:10;8.63;;;6.85;;
61915;SDS011;47868;51.326;6.550;2023-04-06T13:12:36;9.90;;;7.78;;
61915;SDS011;47868;51.326;6.550;2023-04-06T13:15:02;8.85;;;7.45;;
61915;SDS011;47868;51.326;6.550;2023-04-06T13:17:29;9.38;;;7.55;;
61915;SDS011;47868;51.326;6.550;2023-04-06T13:19:55;13.05;;;8.10;;
61915;SDS011;47868;51.326;6.550;2023-04-06T13:22:21;9.00;;;7.13;;
61915;SDS011;47868;51.326;6.550;2023-04-06T13:24:47;11.13;;;6.88;;
61915;SDS011;47868;51.326;6.550;2023-04-06T13:27:13;10.15;;;6.93;;
61915;SDS011;47868;51.326;6.550;2023-04-06T13:29:39;12.23;;;7.82;;
61915;SDS011;47868;51.326;6.550;2023-04-06T13:32:05;9.00;;;7.47;;
61915;SDS011;47868;51.326;6.550;2023-04-06T13:34:31;9.13;;;8.23;;
61915;SDS011;47868;51.326;6.550;2023-04-06T13:36:57;10.30;;;7.90;;
61915;SDS011;47868;51.326;6.550;2023-04-06T13:39:23;11.07;;;8.88;;
61915;SDS011;47868;51.326;6.550;2023-04-06T13:41:49;9.93;;;8.82;;
61915;SDS011;47868;51.326;6.550;2023-04-06T13:44:15;12.70;;;8.48;;
61915;SDS011;47868;51.326;6.550;2023-04-06T13:46:42;9.45;;;8.40;;
61915;SDS011;47868;51.326;6.550;2023-04-06T13:49:08;10.25;;;8.68;;
61915;SDS011;47868;51.326;6.550;2023-04-06T13:51:34;12.10;;;8.60;;
61915;SDS011;47868;51.326;6.550;2023-04-06T13:54:00;11.07;;;9.20;;
61915;SDS011;47868;51.326;6.550;2023-04-06T13:56:26;10.77;;;8.95;;
61915;SDS011;47868;51.326;6.550;2023-04-06T13:58:56;10.35;;;8.50;;
61915;SDS011;47868;51.326;6.550;2023-04-06T14:01:22;13.02;;;10.23;;
61915;SDS011;47868;51.326;6.550;2023-04-06T14:03:48;11.43;;;9.25;;
61915;SDS011;47868;51.326;6.550;2023-04-06T14:06:14;15.23;;;9.20;;
61915;SDS011;47868;51.326;6.550;2023-04-06T14:08:40;12.95;;;9.35;;
61915;SDS011;47868;51.326;6.550;2023-04-06T14:11:10;12.98;;;9.45;;
61915;SDS011;47868;51.326;6.550;2023-04-06T14:13:37;10.13;;;8.63;;
61915;SDS011;47868;51.326;6.550;2023-04-06T14:16:03;10.25;;;9.23;;
61915;SDS011;47868;51.326;6.550;2023-04-06T14:18:29;11.65;;;8.68;;
61915;SDS011;47868;51.326;6.550;2023-04-06T14:20:56;12.88;;;9.45;;
61915;SDS011;47868;51.326;6.550;2023-04-06T14:23:22;11.45;;;8.52;;
61915;SDS011;47868;51.326;6.550;2023-04-06T14:25:50;11.23;;;8.88;;
61915;SDS011;47868;51.326;6.550;2023-04-06T14:28:16;10.02;;;8.38;;
61915;SDS011;47868;51.326;6.550;2023-04-06T14:30:43;10.77;;;8.75;;
61915;SDS011;47868;51.326;6.550;2023-04-06T14:33:09;9.23;;;8.27;;
61915;SDS011;47868;51.326;6.550;2023-04-06T14:35:38;12.43;;;10.10;;
61915;SDS011;47868;51.326;6.550;2023-04-06T14:38:04;10.23;;;9.10;;